< < Back
Terminal Aerodrome Forecast


Current Version              Previous Versions:   1  2  3  4  5  6  7  8  9  

Terminal Aerodrome Forecast

213
FTUS42 KFFC 031218 AAA
TAFMCN
TAF AMD
KMCN 031218Z 0312/0412 VRB03KT P6SM FEW030 BKN220
      TEMPO 0312/0314 5SM BR
     FM031400 30004KT P6SM SCT030 BKN200
     FM031700 30006KT P6SM SCT045 BKN180
     FM040000 00000KT P6SM SCT060 SCT150
     FM041000 00000KT 5SM BR FEW150 SCT250=



Latest METAR

889
SAUS80 KWBC 031300 RRA
MTRMCN
METAR KMCN 031253Z 00000KT 6SM BR CLR 24/23 A3000 RMK AO2 SLP154
T02390228


USA.gov is the U.S. government's official web portal to all federal, state and local government web resources and services.